Time;durP1;ratioP1;P1;durP2;ratioP2;P2;SDS_P1;SDS_P2;PMS_P1;PMS_P2;Temp;Humidity;BMP_temperature;BMP_pressure;BME280_temperature;BME280_humidity;BME280_pressure;Samples;Min_cycle;Max_cycle;Signal;HPM_P1;HPM_P2
2023/03/24 00:03:35;;;;;;;7.10;4.40;;;;;;;10.46;69.69;99140.67;217524;1259;139741;-74
2023/03/24 00:08:42;;;;;;;5.30;3.90;;;;;;;10.40;69.86;99137.27;217727;1257;141429;-75
2023/03/24 00:13:48;;;;;;;6.80;4.70;;;;;;;10.36;70.32;99133.00;217974;1255;139154;-71
2023/03/24 00:18:54;;;;;;;4.70;4.10;;;;;;;10.26;70.26;99132.83;217562;1256;139139;-73
2023/03/24 00:24:00;;;;;;;6.90;3.80;;;;;;;10.14;70.40;99134.75;218748;1256;140710;-67
2023/03/24 00:29:07;;;;;;;6.80;4.30;;;;;;;10.04;70.69;99126.70;217756;1254;140008;-72
2023/03/24 00:34:12;;;;;;;7.40;4.40;;;;;;;10.00;70.75;99122.02;217633;1259;140855;-73
2023/03/24 00:39:18;;;;;;;7.90;4.00;;;;;;;9.94;70.89;99121.55;218748;1256;140071;-73
2023/03/24 00:44:24;;;;;;;9.40;4.70;;;;;;;9.75;70.71;99119.41;218541;1256;139773;-72
2023/03/24 00:49:43;;;;;;;6.80;4.00;;;;;;;9.60;70.93;99123.60;220574;1256;139250;-72
2023/03/24 00:54:50;;;;;;;11.20;5.80;;;;;;;9.54;71.17;99116.91;217839;1256;139392;-71
2023/03/24 00:59:56;;;;;;;6.20;4.90;;;;;;;9.51;71.26;99114.20;220633;1256;141232;-71
2023/03/24 01:05:01;;;;;;;6.10;4.40;;;;;;;9.38;70.87;99106.88;220529;1256;139490;-72
2023/03/24 01:10:07;;;;;;;5.90;4.70;;;;;;;9.17;70.92;99097.97;219213;1254;139037;-71
2023/03/24 01:15:18;;;;;;;11.20;6.00;;;;;;;8.93;70.92;99090.17;217761;1255;139251;-72
2023/03/24 01:20:24;;;;;;;6.90;5.60;;;;;;;8.70;71.01;99093.44;218173;1257;139342;-71
2023/03/24 01:25:29;;;;;;;6.50;5.60;;;;;;;8.58;71.54;99089.85;219098;1256;139595;-72
2023/03/24 01:30:34;;;;;;;15.10;6.10;;;;;;;8.61;72.08;99084.44;217874;1257;140446;-71
2023/03/24 01:35:38;;;;;;;12.40;7.40;;;;;;;8.62;72.45;99076.40;217957;1257;140819;-71
2023/03/24 01:40:46;;;;;;;15.70;6.60;;;;;;;8.62;72.65;99073.78;217819;1256;138850;-70
2023/03/24 01:45:58;;;;;;;11.50;7.20;;;;;;;8.55;72.55;99071.02;217917;1258;222470;-70
2023/03/24 01:51:25;;;;;;;19.00;8.00;;;;;;;8.47;72.70;99067.72;217647;1259;139804;-70
2023/03/24 01:56:35;;;;;;;7.90;5.90;;;;;;;8.45;73.04;99071.55;217679;1257;141124;-68
2023/03/24 02:01:41;;;;;;;15.50;6.90;;;;;;;8.37;73.23;99074.36;218331;1256;140825;-70
2023/03/24 02:06:47;;;;;;;10.00;6.90;;;;;;;8.25;73.46;99081.45;217883;1256;139286;-70
2023/03/24 02:11:54;;;;;;;8.40;6.60;;;;;;;8.25;73.97;99086.23;217913;1254;140203;-72
2023/03/24 02:17:11;;;;;;;17.30;8.70;;;;;;;8.31;73.76;99078.79;218159;1257;139920;-72
2023/03/24 02:22:41;;;;;;;17.40;10.10;;;;;;;8.28;74.04;99079.58;217602;1254;139641;-71
2023/03/24 02:28:11;;;;;;;12.40;8.40;;;;;;;8.28;74.45;99078.05;218244;1256;139017;-70
2023/03/24 02:34:03;;;;;;;11.00;7.90;;;;;;;8.23;74.21;99078.33;217771;1259;139326;-71
2023/03/24 02:39:22;;;;;;;14.00;9.30;;;;;;;8.22;74.24;99074.02;219975;1255;140434;-71
2023/03/24 02:44:39;;;;;;;13.50;9.30;;;;;;;8.19;74.38;99067.01;220264;1255;140993;-72
2023/03/24 02:49:55;;;;;;;13.40;9.30;;;;;;;8.13;74.51;99069.32;220473;1255;138782;-71
2023/03/24 02:55:10;;;;;;;12.80;9.60;;;;;;;8.11;74.82;99054.46;217981;1256;138957;-68
2023/03/24 03:00:27;;;;;;;17.20;9.50;;;;;;;8.07;74.55;99041.84;219459;1256;140803;-69
2023/03/24 03:05:46;;;;;;;12.60;9.70;;;;;;;8.07;75.06;99047.54;218485;1256;140061;-68
2023/03/24 03:10:53;;;;;;;14.60;9.20;;;;;;;8.10;74.90;99050.92;217829;1256;140049;-72
2023/03/24 03:16:04;;;;;;;15.70;9.70;;;;;;;8.04;75.24;99051.92;217924;1259;139370;-73
2023/03/24 03:21:14;;;;;;;15.30;9.40;;;;;;;8.01;75.70;99046.60;217763;1259;139411;-71
2023/03/24 03:26:22;;;;;;;23.20;10.50;;;;;;;8.09;75.81;99051.06;217853;1256;140032;-71
2023/03/24 03:31:33;;;;;;;20.90;11.30;;;;;;;8.08;76.16;99051.52;217866;1259;140048;-71
2023/03/24 03:36:49;;;;;;;13.60;10.70;;;;;;;8.09;76.63;99058.57;218033;1259;140979;-72
2023/03/24 03:41:55;;;;;;;21.60;10.80;;;;;;;8.16;77.09;99053.88;218452;1256;139166;-70
2023/03/24 03:47:01;;;;;;;14.60;9.70;;;;;;;8.29;77.55;99047.60;218278;1255;139636;-70
2023/03/24 03:52:07;;;;;;;15.70;10.70;;;;;;;8.45;77.26;99042.55;218365;1256;140371;-70
2023/03/24 03:57:12;;;;;;;15.10;10.30;;;;;;;8.56;77.37;99037.06;217698;1256;139920;-70
2023/03/24 04:02:42;;;;;;;14.10;9.60;;;;;;;8.60;77.34;99033.25;218401;1259;140138;-71
2023/03/24 04:08:05;;;;;;;15.40;10.20;;;;;;;8.59;77.64;99023.94;218373;1256;140490;-72
2023/03/24 04:13:27;;;;;;;12.60;9.30;;;;;;;8.58;77.55;99016.96;217754;1256;140424;-74
2023/03/24 04:18:44;;;;;;;13.30;8.80;;;;;;;8.59;77.61;99002.69;218757;1256;140949;-72
2023/03/24 04:24:29;;;;;;;16.30;11.90;;;;;;;8.55;76.89;98995.94;219920;1256;140511;-72
2023/03/24 04:29:41;;;;;;;19.10;10.50;;;;;;;8.38;77.02;98991.23;217639;1259;139487;-72
2023/03/24 04:34:54;;;;;;;20.30;14.50;;;;;;;8.34;77.30;98989.50;219122;1256;140987;-72
2023/03/24 04:40:04;;;;;;;17.00;11.20;;;;;;;8.38;77.55;98985.92;217863;1259;141129;-72
2023/03/24 04:45:11;;;;;;;21.40;12.00;;;;;;;8.40;77.23;98984.27;218817;1256;140755;-70
2023/03/24 04:50:31;;;;;;;19.20;11.90;;;;;;;8.30;77.20;98984.05;218754;1256;142112;-71
2023/03/24 04:55:53;;;;;;;16.30;9.80;;;;;;;8.23;77.39;98980.46;220459;1255;140489;-71
2023/03/24 05:00:58;;;;;;;14.50;9.50;;;;;;;8.31;78.32;98974.61;218508;1258;139895;-76
2023/03/24 05:06:04;;;;;;;14.50;10.60;;;;;;;8.45;78.59;98977.55;217706;1257;140798;-72
2023/03/24 05:11:09;;;;;;;21.70;14.00;;;;;;;8.62;79.09;98978.03;219489;1256;140243;-69
2023/03/24 05:16:13;;;;;;;25.40;13.30;;;;;;;8.78;79.44;98978.74;218929;1256;140167;-71
2023/03/24 05:21:19;;;;;;;20.80;10.70;;;;;;;8.95;79.56;98981.08;218136;1256;140272;-68
2023/03/24 05:26:25;;;;;;;13.90;9.80;;;;;;;9.09;79.41;98984.38;218787;1256;141945;-68
2023/03/24 05:31:29;;;;;;;12.50;9.10;;;;;;;9.20;79.54;98984.99;217614;1259;142179;-67
2023/03/24 05:36:33;;;;;;;11.30;7.50;;;;;;;9.28;79.48;98980.55;218139;1256;139669;-72
2023/03/24 05:41:37;;;;;;;11.90;7.80;;;;;;;9.38;79.65;98977.13;217729;1257;140334;-72
2023/03/24 05:46:41;;;;;;;8.80;7.20;;;;;;;9.48;79.58;98973.38;217590;1257;140465;-68
2023/03/24 05:51:45;;;;;;;10.50;7.20;;;;;;;9.58;79.79;98972.59;217458;1259;140541;-66
2023/03/24 05:56:49;;;;;;;10.70;7.50;;;;;;;9.65;79.90;98973.98;217490;1257;140796;-68
2023/03/24 06:01:55;;;;;;;12.60;7.00;;;;;;;9.66;80.13;98972.67;217650;1256;140431;-71
2023/03/24 06:07:03;;;;;;;7.20;6.10;;;;;;;9.69;80.37;98972.02;218201;1259;139753;-70
2023/03/24 06:12:08;;;;;;;13.10;7.90;;;;;;;9.74;80.57;98973.52;218019;1259;141299;-70
2023/03/24 06:17:13;;;;;;;8.00;5.70;;;;;;;9.83;80.97;98976.52;217799;1257;139675;-69
2023/03/24 06:22:19;;;;;;;9.90;6.00;;;;;;;9.93;81.15;98979.64;217673;1257;140865;-68
2023/03/24 06:27:28;;;;;;;16.50;5.50;;;;;;;9.99;81.37;98974.02;217568;1256;143319;-68
2023/03/24 06:32:33;;;;;;;4.90;4.40;;;;;;;10.14;81.57;98965.06;220550;1256;140673;-69
2023/03/24 06:37:39;;;;;;;5.80;5.10;;;;;;;10.36;81.67;98954.02;220540;1256;140359;-69
2023/03/24 06:42:43;;;;;;;6.40;5.60;;;;;;;10.52;81.57;98947.72;220279;1256;140035;-70
2023/03/24 06:47:47;;;;;;;9.70;6.00;;;;;;;10.63;81.33;98927.83;220543;1255;139578;-70
2023/03/24 06:52:52;;;;;;;7.90;5.50;;;;;;;10.74;81.57;98914.36;220504;1256;139500;-71
2023/03/24 06:57:57;;;;;;;8.90;7.10;;;;;;;10.89;81.51;98918.80;219665;1257;570143;-69
2023/03/24 07:03:02;;;;;;;7.00;6.40;;;;;;;11.06;81.55;98915.80;217732;1257;140624;-71
2023/03/24 07:08:07;;;;;;;7.00;5.20;;;;;;;11.27;81.56;98905.25;219123;1256;140164;-73
2023/03/24 07:13:32;;;;;;;6.50;5.80;;;;;;;11.54;81.26;98887.45;217743;1259;140313;-75
2023/03/24 07:18:37;;;;;;;7.70;5.40;;;;;;;11.91;81.09;98888.64;217663;1259;140654;-72
2023/03/24 07:23:41;;;;;;;7.30;5.40;;;;;;;12.45;80.91;98884.80;217788;1256;140666;-73
2023/03/24 07:28:46;;;;;;;7.40;4.80;;;;;;;13.06;80.72;98880.89;217468;1259;140817;-70
2023/03/24 07:33:50;;;;;;;5.50;4.10;;;;;;;13.67;80.13;98884.21;217693;1257;140505;-73
2023/03/24 07:38:54;;;;;;;5.90;4.40;;;;;;;14.31;79.23;98878.58;218172;1259;139952;-73
2023/03/24 07:43:58;;;;;;;7.30;5.30;;;;;;;14.33;77.91;98876.85;218565;1256;140373;-71
2023/03/24 07:49:03;;;;;;;6.70;3.00;;;;;;;14.20;77.14;98870.44;217657;1256;139906;-73
2023/03/24 07:54:22;;;;;;;4.30;3.90;;;;;;;14.03;77.04;98859.69;217770;1256;139705;-70
2023/03/24 07:59:26;;;;;;;7.70;4.70;;;;;;;14.03;77.08;98851.98;217621;1259;140130;-72
2023/03/24 08:04:31;;;;;;;5.50;3.90;;;;;;;14.14;76.72;98850.91;217957;1259;140009;-71
2023/03/24 08:09:36;;;;;;;4.00;3.70;;;;;;;14.40;76.72;98840.11;219123;1257;140291;-72
2023/03/24 08:14:42;;;;;;;4.00;3.50;;;;;;;14.66;76.29;98832.40;218005;1256;140468;-71
2023/03/24 08:19:47;;;;;;;4.60;4.20;;;;;;;15.01;75.90;98826.23;217705;1259;139492;-73
2023/03/24 08:25:05;;;;;;;3.90;3.50;;;;;;;15.40;75.58;98831.19;219259;1256;151403;-72
2023/03/24 08:30:20;;;;;;;4.00;3.60;;;;;;;15.79;74.81;98834.02;219664;1257;140202;-71
2023/03/24 08:35:38;;;;;;;3.90;3.50;;;;;;;16.08;74.11;98835.59;220432;1256;140882;-71
2023/03/24 08:40:43;;;;;;;3.90;3.10;;;;;;;16.23;73.36;98829.15;219833;1256;139051;-72
2023/03/24 08:45:47;;;;;;;3.40;3.20;;;;;;;16.21;72.76;98828.87;218545;1257;139694;-74
2023/03/24 08:50:54;;;;;;;4.50;3.70;;;;;;;16.13;72.32;98827.93;217624;1259;139832;-74
2023/03/24 08:55:58;;;;;;;4.00;3.10;;;;;;;16.00;71.86;98828.50;218069;1256;140580;-74
2023/03/24 09:01:03;;;;;;;6.30;3.40;;;;;;;15.87;71.99;98817.04;217725;1259;142600;-71
2023/03/24 09:06:07;;;;;;;8.30;3.00;;;;;;;15.73;71.80;98800.79;218014;1256;139425;-73
2023/03/24 09:11:18;;;;;;;4.70;3.20;;;;;;;15.75;71.56;98795.98;217784;1256;140793;-71
2023/03/24 09:16:23;;;;;;;3.40;3.10;;;;;;;15.84;71.57;98801.08;217823;1257;139648;-71
2023/03/24 09:21:27;;;;;;;5.30;3.60;;;;;;;15.81;71.38;98799.34;217763;1259;139789;-74
2023/03/24 09:26:32;;;;;;;5.50;3.20;;;;;;;15.68;71.10;98799.88;217757;1256;139172;-74
2023/03/24 09:31:38;;;;;;;5.10;3.50;;;;;;;15.60;71.11;98794.36;217642;1257;139701;-75
2023/03/24 09:36:41;;;;;;;5.00;3.30;;;;;;;15.55;71.21;98787.71;217833;1256;140412;-75
2023/03/24 09:41:49;;;;;;;5.60;3.20;;;;;;;15.51;71.10;98796.52;218029;1259;139730;-71
2023/03/24 09:47:03;;;;;;;6.20;3.70;;;;;;;15.48;71.24;98790.00;217617;1257;138719;-74
2023/03/24 09:52:13;;;;;;;3.90;3.20;;;;;;;15.47;71.06;98792.48;217774;1257;139006;-69
2023/03/24 09:57:35;;;;;;;3.20;2.60;;;;;;;15.43;70.79;98784.04;219271;1257;139109;-70
2023/03/24 10:02:39;;;;;;;5.10;3.00;;;;;;;15.47;70.46;98776.26;217999;1259;139676;-70
2023/03/24 10:07:51;;;;;;;2.40;2.30;;;;;;;15.45;70.37;98773.65;217830;1259;139817;-73
2023/03/24 10:13:06;;;;;;;4.30;2.80;;;;;;;15.40;70.26;98768.88;217798;1256;139323;-71
2023/03/24 10:18:22;;;;;;;3.20;2.40;;;;;;;15.40;70.34;98767.54;219413;1257;138891;-74
2023/03/24 10:23:43;;;;;;;3.00;2.80;;;;;;;15.46;70.12;98761.93;217738;1259;140202;-73
2023/03/24 10:28:53;;;;;;;11.30;2.30;;;;;;;15.54;69.92;98757.21;220405;1255;139766;-73
2023/03/24 10:33:59;;;;;;;3.00;2.40;;;;;;;15.66;69.90;98753.88;220433;1257;141132;-73
2023/03/24 10:39:05;;;;;;;3.80;2.70;;;;;;;15.91;69.69;98744.56;219752;1255;139020;-73
2023/03/24 10:44:17;;;;;;;4.60;3.80;;;;;;;16.19;69.17;98736.35;219145;1257;140439;-73
2023/03/24 10:49:25;;;;;;;8.60;4.00;;;;;;;16.38;68.77;98726.16;217763;1256;138952;-69
2023/03/24 10:54:31;;;;;;;3.40;2.50;;;;;;;16.73;68.53;98722.90;218677;1257;139677;-71
2023/03/24 10:59:50;;;;;;;3.60;2.60;;;;;;;17.03;68.17;98722.34;218497;1257;142176;-70
2023/03/24 11:05:17;;;;;;;4.30;3.20;;;;;;;17.13;67.57;98718.13;217592;1259;139208;-71
2023/03/24 11:10:27;;;;;;;2.30;2.00;;;;;;;17.27;67.22;98706.64;218709;1256;139733;-70
2023/03/24 11:15:35;;;;;;;2.60;2.40;;;;;;;17.51;66.96;98695.69;217715;1259;141450;-70
2023/03/24 11:20:47;;;;;;;2.70;2.50;;;;;;;17.91;66.49;98687.21;218877;1257;140916;-71
2023/03/24 11:26:30;;;;;;;3.80;2.60;;;;;;;18.26;66.08;98679.88;217574;1258;139229;-72
2023/03/24 11:31:38;;;;;;;4.30;2.80;;;;;;;18.50;65.23;98672.42;218509;1259;139998;-71
2023/03/24 11:36:57;;;;;;;3.00;2.50;;;;;;;18.61;64.45;98669.73;217755;1257;140200;-70
2023/03/24 11:42:17;;;;;;;2.70;2.40;;;;;;;18.64;64.10;98669.86;218039;1259;139698;-70
2023/03/24 11:47:30;;;;;;;2.50;2.30;;;;;;;18.74;63.87;98667.40;217918;1257;139683;-70
2023/03/24 11:52:40;;;;;;;3.10;2.50;;;;;;;18.86;63.44;98664.52;217788;1259;139662;-69
2023/03/24 11:58:23;;;;;;;2.60;2.40;;;;;;;18.99;63.24;98658.61;217732;1257;139462;-69
2023/03/24 12:03:45;;;;;;;2.90;1.90;;;;;;;19.17;63.10;98649.71;218664;1259;139548;-69
2023/03/24 12:09:16;;;;;;;5.10;2.40;;;;;;;19.25;62.42;98644.70;219442;1259;139556;-71
2023/03/24 12:14:56;;;;;;;1.50;1.40;;;;;;;19.29;61.66;98636.60;220664;1258;139427;-70
2023/03/24 12:20:07;;;;;;;4.00;2.40;;;;;;;19.39;61.57;98631.64;220291;1257;139545;-70
2023/03/24 12:25:31;;;;;;;3.80;2.70;;;;;;;19.48;60.94;98626.13;220406;1257;139380;-71
2023/03/24 12:31:03;;;;;;;2.70;2.40;;;;;;;19.58;60.91;98618.96;220249;1259;140426;-70
2023/03/24 12:36:38;;;;;;;2.70;2.10;;;;;;;19.66;60.43;98612.84;220218;1257;139634;-70
2023/03/24 12:41:56;;;;;;;3.10;2.80;;;;;;;19.69;59.91;98599.29;218282;1259;140231;-68
2023/03/24 12:47:20;;;;;;;2.90;2.70;;;;;;;19.70;59.76;98592.14;217796;1259;139625;-70
2023/03/24 12:52:37;;;;;;;3.10;2.80;;;;;;;19.68;59.46;98591.84;217777;1257;139281;-71
2023/03/24 12:57:55;;;;;;;2.70;2.50;;;;;;;19.65;59.10;98581.99;218585;1259;139527;-71
2023/03/24 13:03:13;;;;;;;4.20;3.10;;;;;;;19.75;59.25;98578.24;217774;1259;139644;-73
2023/03/24 13:08:28;;;;;;;3.40;2.40;;;;;;;19.89;59.03;98575.70;218317;1259;139128;-72
2023/03/24 13:13:37;;;;;;;5.60;2.90;;;;;;;19.92;58.75;98568.95;217701;1259;139520;-70
2023/03/24 13:18:49;;;;;;;3.20;2.70;;;;;;;19.90;58.70;98571.41;218105;1259;139685;-71
2023/03/24 13:23:55;;;;;;;3.20;2.80;;;;;;;19.82;58.40;98564.63;217783;1260;139770;-71
2023/03/24 13:29:17;;;;;;;2.80;2.60;;;;;;;19.73;58.38;98557.07;218398;1259;139570;-72
2023/03/24 13:34:32;;;;;;;2.70;2.50;;;;;;;19.66;58.49;98555.05;217971;1259;139650;-72
2023/03/24 13:39:37;;;;;;;2.80;2.60;;;;;;;19.57;58.40;98543.19;218391;1259;139684;-71
2023/03/24 13:44:45;;;;;;;4.60;2.70;;;;;;;19.48;58.47;98533.75;217616;1256;139515;-72
2023/03/24 13:50:00;;;;;;;4.00;3.00;;;;;;;19.30;58.01;98530.73;218744;1260;140178;-70
2023/03/24 13:55:26;;;;;;;3.70;3.00;;;;;;;19.15;58.08;98531.92;220280;1257;138795;-69
2023/03/24 14:00:32;;;;;;;2.50;2.20;;;;;;;19.02;58.25;98528.60;220324;1259;140789;-72
2023/03/24 14:05:58;;;;;;;2.40;1.90;;;;;;;18.91;58.33;98522.10;218924;1258;140267;-71
2023/03/24 14:11:03;;;;;;;2.80;2.50;;;;;;;18.76;58.17;98525.45;217794;1260;139199;-72
2023/03/24 14:16:41;;;;;;;5.10;3.00;;;;;;;18.72;58.46;98521.30;217889;1257;139467;-72
2023/03/24 14:22:03;;;;;;;4.40;2.20;;;;;;;18.62;58.43;98515.08;217776;1260;139218;-72
2023/03/24 14:27:42;;;;;;;2.50;2.30;;;;;;;18.45;58.28;98516.69;217880;1259;140095;-71
2023/03/24 14:32:59;;;;;;;2.00;1.80;;;;;;;18.30;58.48;98508.30;217365;1259;139413;-72
2023/03/24 14:38:21;;;;;;;6.20;2.80;;;;;;;18.21;58.49;98505.17;217560;1262;139290;-71
2023/03/24 14:43:54;;;;;;;3.40;2.20;;;;;;;18.14;58.74;98506.13;217593;1257;139106;-71
2023/03/24 14:49:15;;;;;;;6.30;2.20;;;;;;;18.01;58.71;98504.77;217988;1258;139856;-72
2023/03/24 14:54:40;;;;;;;2.50;2.40;;;;;;;17.86;58.76;98512.73;218443;1258;140009;-72
2023/03/24 14:59:59;;;;;;;3.00;2.20;;;;;;;17.69;58.68;98508.58;217557;1258;139842;-72
2023/03/24 15:05:13;;;;;;;3.40;2.50;;;;;;;17.54;58.72;98505.70;217615;1260;138998;-71
2023/03/24 15:10:19;;;;;;;2.20;2.00;;;;;;;17.39;58.99;98502.11;218045;1257;139472;-72
2023/03/24 15:15:24;;;;;;;3.50;2.70;;;;;;;17.23;59.28;98499.35;218031;1257;139712;-71
2023/03/24 15:20:36;;;;;;;2.70;2.50;;;;;;;17.03;59.27;98501.80;217632;1260;140025;-72
2023/03/24 15:25:42;;;;;;;3.90;2.50;;;;;;;16.89;59.60;98497.92;217735;1260;138859;-72
2023/03/24 15:30:51;;;;;;;6.60;4.20;;;;;;;16.77;60.00;98502.94;217969;1257;138951;-71
2023/03/24 15:35:58;;;;;;;2.90;2.70;;;;;;;16.64;60.36;98501.30;217733;1260;140363;-69
2023/03/24 15:41:15;;;;;;;3.10;2.40;;;;;;;16.53;60.88;98503.19;217626;1260;140189;-66
2023/03/24 15:46:29;;;;;;;8.00;3.40;;;;;;;16.37;61.35;98510.64;218612;1257;139333;-68
2023/03/24 15:51:59;;;;;;;8.00;3.40;;;;;;;16.22;62.15;98510.81;217760;1257;138816;-70
2023/03/24 15:57:21;;;;;;;10.20;3.80;;;;;;;16.11;63.17;98513.48;218942;1254;139195;-70
2023/03/24 16:02:37;;;;;;;12.50;4.10;;;;;;;15.99;64.00;98517.27;217787;1256;140892;-71
2023/03/24 16:07:42;;;;;;;6.70;3.60;;;;;;;15.87;64.75;98519.67;218496;1254;140550;-70
2023/03/24 16:12:46;;;;;;;4.00;3.60;;;;;;;15.76;65.55;98521.69;217648;1260;141050;-69
2023/03/24 16:17:51;;;;;;;4.50;3.30;;;;;;;15.56;66.20;98526.08;218253;1258;139540;-70
2023/03/24 16:22:56;;;;;;;3.40;3.10;;;;;;;15.39;66.68;98530.59;220686;1255;139146;-70
2023/03/24 16:28:00;;;;;;;6.50;4.40;;;;;;;15.21;67.37;98531.40;219885;1257;140216;-67
2023/03/24 16:33:05;;;;;;;5.40;4.90;;;;;;;15.07;67.91;98523.89;220568;1257;140518;-69
2023/03/24 16:38:12;;;;;;;7.10;4.20;;;;;;;14.91;68.36;98512.03;218128;1257;139217;-69
2023/03/24 16:43:18;;;;;;;4.70;3.70;;;;;;;14.78;68.99;98509.76;217707;1257;139307;-71
2023/03/24 16:48:22;;;;;;;5.30;4.80;;;;;;;14.68;69.47;98509.42;217787;1259;140282;-66
2023/03/24 16:53:26;;;;;;;6.00;4.40;;;;;;;14.59;69.94;98500.98;217606;1257;140269;-66
2023/03/24 16:58:31;;;;;;;12.20;5.80;;;;;;;14.44;70.38;98507.18;218657;1257;139656;-66
2023/03/24 17:03:38;;;;;;;5.10;4.60;;;;;;;14.33;71.03;98512.05;217701;1259;139298;-67
2023/03/24 17:08:42;;;;;;;4.70;4.30;;;;;;;14.25;71.23;98504.59;217787;1254;139108;-66
2023/03/24 17:13:48;;;;;;;6.60;4.40;;;;;;;14.14;71.64;98503.11;217998;1259;140645;-67
2023/03/24 17:18:52;;;;;;;6.90;4.40;;;;;;;14.05;72.11;98499.05;217892;1257;139831;-65
2023/03/24 17:23:57;;;;;;;4.20;3.40;;;;;;;13.94;72.42;98493.46;217953;1257;139094;-66
2023/03/24 17:29:02;;;;;;;6.40;5.20;;;;;;;13.86;72.72;98500.98;217514;1258;140183;-64
2023/03/24 17:34:11;;;;;;;4.80;3.70;;;;;;;13.85;73.00;98504.81;218366;1257;140312;-69
2023/03/24 17:39:25;;;;;;;7.10;4.80;;;;;;;13.81;73.06;98502.50;217604;1258;140414;-70
2023/03/24 17:44:31;;;;;;;7.40;4.60;;;;;;;13.74;73.34;98495.83;219047;1259;139871;-69
2023/03/24 17:49:36;;;;;;;10.40;5.60;;;;;;;13.73;73.64;98512.62;217690;1257;141471;-67
2023/03/24 17:54:40;;;;;;;9.10;5.80;;;;;;;13.76;73.87;98512.21;217729;1254;139332;-67
2023/03/24 17:59:45;;;;;;;7.30;6.50;;;;;;;13.73;73.74;98516.59;217549;1256;139593;-69
2023/03/24 18:04:49;;;;;;;7.00;5.40;;;;;;;13.69;73.86;98524.29;218462;1256;140636;-67
2023/03/24 18:09:54;;;;;;;9.00;5.30;;;;;;;13.57;73.75;98517.60;220474;1256;141358;-69
2023/03/24 18:14:59;;;;;;;6.80;5.50;;;;;;;13.48;74.12;98517.80;218868;1256;140797;-72
2023/03/24 18:20:09;;;;;;;7.40;6.60;;;;;;;13.43;74.31;98521.56;218173;1257;139782;-68
2023/03/24 18:25:14;;;;;;;8.10;7.40;;;;;;;13.45;74.42;98522.70;218852;1258;140166;-69
2023/03/24 18:30:21;;;;;;;8.90;6.50;;;;;;;13.50;74.69;98529.60;217706;1257;139835;-67
2023/03/24 18:35:26;;;;;;;6.80;5.90;;;;;;;13.56;74.69;98533.09;218041;1256;139103;-68
2023/03/24 18:40:31;;;;;;;9.50;5.70;;;;;;;13.59;74.93;98539.64;219366;1257;139963;-68
2023/03/24 18:45:36;;;;;;;11.20;6.70;;;;;;;13.58;75.03;98536.77;217711;1259;140134;-67
2023/03/24 18:50:41;;;;;;;9.10;6.30;;;;;;;13.57;74.89;98536.02;217587;1259;139605;-69
2023/03/24 18:55:48;;;;;;;11.50;7.20;;;;;;;13.59;75.02;98531.94;217419;1257;391350;-68
2023/03/24 19:00:53;;;;;;;;;;;;;;;13.59;75.09;98536.91;217589;1258;141200;-68
2023/03/24 19:06:00;;;;;;;8.20;6.90;;;;;;;13.57;75.29;98547.90;218259;1257;127177;-68
2023/03/24 19:11:04;;;;;;;9.20;6.20;;;;;;;13.56;75.29;98556.48;217759;1256;140898;-68
2023/03/24 19:16:09;;;;;;;10.00;6.50;;;;;;;13.52;75.08;98568.24;217692;1257;140137;-68
2023/03/24 19:21:12;;;;;;;9.70;7.20;;;;;;;13.49;75.15;98578.50;217940;1256;141109;-68
2023/03/24 19:26:16;;;;;;;5.70;5.00;;;;;;;13.49;74.89;98587.71;217808;1257;140584;-69
2023/03/24 19:31:19;;;;;;;3.80;3.10;;;;;;;13.40;73.58;98596.38;218333;1256;139866;-68
2023/03/24 19:36:25;;;;;;;3.40;2.50;;;;;;;13.28;72.35;98623.96;217768;1257;140711;-68
2023/03/24 19:41:28;;;;;;;4.00;2.50;;;;;;;13.13;71.58;98672.98;217762;1258;141453;-67
2023/03/24 19:46:32;;;;;;;2.30;2.10;;;;;;;12.93;71.59;98667.23;217686;1257;140046;-68
2023/03/24 19:51:36;;;;;;;2.00;1.80;;;;;;;12.70;71.90;98655.43;217626;1256;139950;-67
2023/03/24 19:56:39;;;;;;;4.50;2.30;;;;;;;12.48;72.03;98658.35;217875;1257;139094;-69
2023/03/24 20:01:43;;;;;;;2.00;1.90;;;;;;;12.31;72.53;98659.64;217613;1257;139829;-67
2023/03/24 20:06:47;;;;;;;6.40;2.80;;;;;;;12.11;72.68;98649.82;219715;1256;139712;-69
2023/03/24 20:11:52;;;;;;;2.80;2.00;;;;;;;11.95;73.07;98631.73;220681;1256;139902;-69
2023/03/24 20:17:00;;;;;;;2.50;1.90;;;;;;;11.74;73.25;98622.61;220479;1255;141423;-69
2023/03/24 20:22:03;;;;;;;4.00;3.40;;;;;;;11.64;73.69;98648.71;218996;1256;162026;-68
2023/03/24 20:27:09;;;;;;;3.20;2.50;;;;;;;11.61;74.16;98638.00;218886;1256;139677;-68
2023/03/24 20:32:13;;;;;;;3.20;2.90;;;;;;;11.51;74.41;98624.18;218181;1259;139113;-67
2023/03/24 20:37:17;;;;;;;5.10;2.40;;;;;;;11.33;74.73;98617.08;217700;1256;140681;-68
2023/03/24 20:42:23;;;;;;;6.60;2.80;;;;;;;11.30;75.42;98610.05;218674;1256;139753;-69
2023/03/24 20:47:26;;;;;;;8.30;2.40;;;;;;;11.26;75.55;98602.67;217667;1257;140096;-68
2023/03/24 20:52:33;;;;;;;6.00;2.70;;;;;;;11.21;75.90;98611.53;217702;1259;140068;-69
2023/03/24 20:57:37;;;;;;;4.10;2.50;;;;;;;11.23;75.92;98620.50;217893;1257;162041;-69
2023/03/24 21:02:41;;;;;;;5.90;3.10;;;;;;;11.25;76.32;98614.15;217871;1257;139650;-70
2023/03/24 21:07:45;;;;;;;4.10;2.90;;;;;;;11.20;76.43;98629.61;217696;1255;139501;-69
2023/03/24 21:12:49;;;;;;;5.30;3.10;;;;;;;11.13;76.07;98644.42;217961;1256;139828;-70
2023/03/24 21:17:57;;;;;;;6.30;3.90;;;;;;;11.03;76.17;98661.48;217695;1257;139756;-70
2023/03/24 21:23:02;;;;;;;8.30;4.40;;;;;;;10.89;76.20;98645.45;217699;1257;221907;-70
2023/03/24 21:28:08;;;;;;;5.80;2.90;;;;;;;10.79;76.32;98645.64;218019;1256;139612;-68
2023/03/24 21:33:13;;;;;;;6.70;2.70;;;;;;;10.71;76.42;98645.83;217822;1256;140757;-69
2023/03/24 21:38:17;;;;;;;5.00;3.30;;;;;;;10.66;76.53;98639.95;218466;1257;140515;-68
2023/03/24 21:43:21;;;;;;;6.60;3.80;;;;;;;10.61;76.45;98645.80;217789;1256;141417;-69
2023/03/24 21:48:26;;;;;;;5.00;3.20;;;;;;;10.55;76.51;98649.02;217726;1256;139436;-68
2023/03/24 21:53:30;;;;;;;8.30;3.80;;;;;;;10.45;76.59;98664.85;217718;1256;139713;-69
2023/03/24 21:58:34;;;;;;;5.90;5.30;;;;;;;10.35;76.77;98676.42;219415;1256;140937;-70
2023/03/24 22:03:38;;;;;;;5.10;3.70;;;;;;;10.25;76.85;98679.46;218797;1256;142229;-68
2023/03/24 22:08:42;;;;;;;7.10;4.30;;;;;;;10.17;76.83;98680.46;217943;1255;140537;-69
2023/03/24 22:13:46;;;;;;;7.70;4.60;;;;;;;10.12;77.13;98692.17;217689;1256;139438;-68
2023/03/24 22:18:51;;;;;;;6.00;4.90;;;;;;;10.07;76.96;98687.27;218135;1256;140050;-69
2023/03/24 22:23:55;;;;;;;6.70;5.20;;;;;;;9.96;77.16;98695.23;217785;1257;140066;-69
2023/03/24 22:28:59;;;;;;;7.30;4.60;;;;;;;9.87;77.18;98702.40;217748;1257;139629;-69
2023/03/24 22:34:03;;;;;;;7.50;4.80;;;;;;;9.79;77.50;98713.48;218217;1256;139386;-68
2023/03/24 22:39:08;;;;;;;11.10;5.10;;;;;;;9.72;77.78;98717.27;218204;1256;140799;-68
2023/03/24 22:44:13;;;;;;;5.90;4.40;;;;;;;9.73;78.11;98719.35;217789;1256;139806;-68
2023/03/24 22:49:18;;;;;;;8.30;5.20;;;;;;;9.71;78.07;98727.41;217723;1257;140822;-69
2023/03/24 22:54:22;;;;;;;8.00;6.10;;;;;;;9.66;78.19;98732.69;217963;1256;140929;-69
2023/03/24 22:59:31;;;;;;;8.20;5.90;;;;;;;9.64;78.40;98725.95;218207;1259;140565;-69
2023/03/24 23:04:35;;;;;;;8.30;6.70;;;;;;;9.57;78.44;98719.30;217820;1259;139514;-68
2023/03/24 23:09:41;;;;;;;7.30;6.20;;;;;;;9.53;78.54;98726.12;217800;1259;140269;-68
2023/03/24 23:14:45;;;;;;;12.00;6.50;;;;;;;9.47;78.54;98729.96;217786;1257;141778;-69
2023/03/24 23:19:50;;;;;;;8.50;7.00;;;;;;;9.43;78.90;98724.77;218386;1256;140228;-68
2023/03/24 23:24:56;;;;;;;12.80;7.40;;;;;;;9.40;78.76;98725.33;218473;1256;139420;-68
2023/03/24 23:30:10;;;;;;;9.50;6.90;;;;;;;9.34;78.96;98714.77;217746;1256;139760;-68
2023/03/24 23:35:14;;;;;;;13.50;7.20;;;;;;;9.29;79.02;98718.13;219726;1256;140663;-69
2023/03/24 23:40:19;;;;;;;9.90;6.20;;;;;;;9.24;79.31;98720.89;217725;1257;140113;-69
2023/03/24 23:45:25;;;;;;;12.10;7.70;;;;;;;9.18;79.44;98720.45;219583;1256;140649;-69